createdAt,value
2023-08-13T00:00:53.183Z,28.64
2023-08-13T00:05:56.246Z,28.80
2023-08-13T00:10:59.257Z,28.81
2023-08-13T00:16:02.670Z,28.66
2023-08-13T00:21:05.736Z,28.74
2023-08-13T00:26:08.795Z,28.39
2023-08-13T00:31:12.089Z,27.49
2023-08-13T00:36:15.469Z,27.32
2023-08-13T00:41:19.263Z,27.11
2023-08-13T00:46:23.371Z,27.43
2023-08-13T00:51:28.336Z,27.56
2023-08-13T00:56:31.482Z,27.63
2023-08-13T01:01:35.349Z,27.66
2023-08-13T01:07:08.217Z,27.72
2023-08-13T01:12:39.727Z,27.63
2023-08-13T01:17:45.377Z,27.47
2023-08-13T01:22:49.842Z,27.36
2023-08-13T01:28:05.082Z,27.32
2023-08-13T01:33:16.153Z,27.21
2023-08-13T01:38:20.037Z,26.97
2023-08-13T01:43:23.132Z,26.87
2023-08-13T01:48:27.798Z,26.84
2023-08-13T01:53:30.975Z,26.72
2023-08-13T01:58:34.648Z,26.83
2023-08-13T02:03:37.635Z,26.66
2023-08-13T02:08:40.634Z,26.65
2023-08-13T02:13:45.031Z,26.83
2023-08-13T02:18:48.213Z,26.84
2023-08-13T02:23:53.191Z,26.73
2023-08-13T02:28:56.503Z,26.83
2023-08-13T02:33:59.577Z,26.78
2023-08-13T02:39:02.671Z,26.90
2023-08-13T02:44:06.112Z,26.75
2023-08-13T02:49:10.220Z,26.64
2023-08-13T02:54:13.371Z,26.63
2023-08-13T02:59:16.409Z,26.57
2023-08-13T03:04:19.648Z,26.44
2023-08-13T03:09:24.276Z,26.34
2023-08-13T03:14:27.313Z,26.34
2023-08-13T03:19:30.775Z,26.27
2023-08-13T03:24:35.110Z,26.23
2023-08-13T03:29:38.868Z,26.26
2023-08-13T03:34:44.084Z,26.25
2023-08-13T03:39:47.170Z,26.28
2023-08-13T03:44:50.296Z,26.21
2023-08-13T03:49:53.580Z,26.21
2023-08-13T03:54:56.629Z,26.23
2023-08-13T04:00:00.774Z,25.95
2023-08-13T04:05:08.369Z,26.11
2023-08-13T04:10:11.726Z,26.12
2023-08-13T04:15:14.913Z,26.12
2023-08-13T04:20:20.204Z,26.28
2023-08-13T04:25:23.651Z,26.53
2023-08-13T04:30:27.074Z,26.79
2023-08-13T04:35:30.212Z,26.98
2023-08-13T04:40:33.590Z,27.38
2023-08-13T04:45:36.819Z,27.51
2023-08-13T04:50:39.931Z,27.55
2023-08-13T04:55:43.135Z,27.57
2023-08-13T05:00:46.926Z,27.63
2023-08-13T05:05:50.374Z,27.65
2023-08-13T05:10:53.732Z,27.81
2023-08-13T05:15:57.114Z,27.84
2023-08-13T05:21:00.440Z,27.76
2023-08-13T05:26:03.712Z,27.84
2023-08-13T05:31:08.727Z,27.91
2023-08-13T05:36:11.984Z,27.96
2023-08-13T05:41:15.154Z,27.98
2023-08-13T05:46:18.360Z,28.17
2023-08-13T05:51:22.181Z,28.24
2023-08-13T05:56:25.255Z,28.27
2023-08-13T06:01:30.121Z,28.31
2023-08-13T06:06:34.411Z,28.43
2023-08-13T06:11:37.426Z,28.45
2023-08-13T06:16:40.617Z,28.84
2023-08-13T06:21:43.709Z,29.10
2023-08-13T06:26:47.064Z,29.19
2023-08-13T06:31:50.557Z,29.62
2023-08-13T06:36:55.268Z,29.91
2023-08-13T06:41:59.021Z,30.00
2023-08-13T06:47:06.253Z,30.10
2023-08-13T06:52:09.370Z,30.14
2023-08-13T06:57:12.418Z,30.28
2023-08-13T07:02:15.665Z,30.41
2023-08-13T07:07:18.855Z,30.66
2023-08-13T07:12:21.900Z,30.71
2023-08-13T07:17:25.058Z,30.62
2023-08-13T07:22:29.283Z,30.63
2023-08-13T07:27:32.992Z,30.74
2023-08-13T07:32:40.036Z,30.90
2023-08-13T07:37:43.401Z,30.76
2023-08-13T07:42:46.568Z,30.65
2023-08-13T07:47:49.655Z,30.57
2023-08-13T07:52:52.780Z,30.42
2023-08-13T07:57:55.902Z,30.31
2023-08-13T08:02:59.640Z,30.05
2023-08-13T08:08:03.058Z,29.51
2023-08-13T08:13:06.291Z,29.52
2023-08-13T08:18:09.491Z,29.43
2023-08-13T08:23:15.304Z,29.34
2023-08-13T08:28:18.421Z,29.39
2023-08-13T08:33:22.891Z,29.29
2023-08-13T08:38:26.081Z,29.13
2023-08-13T08:43:35.752Z,29.10
2023-08-13T08:48:40.866Z,28.88
2023-08-13T08:53:45.545Z,28.97
2023-08-13T08:58:48.774Z,28.89
2023-08-13T09:03:51.901Z,28.70
2023-08-13T09:08:55.024Z,28.66
2023-08-13T09:13:59.698Z,28.60
2023-08-13T09:19:13.122Z,28.60
2023-08-13T09:24:17.649Z,28.20
2023-08-13T09:29:21.513Z,27.87
2023-08-13T09:34:27.208Z,27.39
2023-08-13T09:39:37.856Z,27.07
2023-08-13T09:44:41.197Z,26.84
2023-08-13T09:49:45.901Z,26.57
2023-08-13T09:54:50.246Z,26.57
2023-08-13T09:59:55.317Z,26.45
2023-08-13T10:05:00.804Z,26.26
2023-08-13T10:10:07.880Z,25.99
2023-08-13T10:15:12.847Z,25.74
2023-08-13T10:20:19.752Z,25.64
2023-08-13T10:25:36.129Z,25.65
2023-08-13T10:30:39.234Z,25.54
2023-08-13T10:35:43.630Z,25.38
2023-08-13T10:41:00.960Z,25.48
2023-08-13T10:46:08.081Z,25.37
2023-08-13T10:51:11.375Z,25.45
2023-08-13T10:56:19.186Z,25.45
2023-08-13T11:01:22.433Z,25.39
2023-08-13T11:06:29.553Z,25.39
2023-08-13T11:11:33.565Z,25.03
2023-08-13T11:16:37.378Z,24.82
2023-08-13T11:21:40.564Z,24.41
2023-08-13T11:26:43.784Z,24.12
2023-08-13T11:31:47.659Z,23.97
2023-08-13T11:36:52.067Z,24.39
2023-08-13T11:41:55.178Z,24.47
2023-08-13T11:47:02.062Z,24.59
2023-08-13T11:52:07.593Z,24.95
2023-08-13T11:57:11.352Z,25.38
2023-08-13T12:02:16.781Z,25.55
2023-08-13T12:07:20.285Z,25.65
2023-08-13T12:12:23.299Z,26.32
2023-08-13T12:17:26.303Z,26.50
2023-08-13T12:22:31.916Z,26.59
2023-08-13T12:27:36.223Z,26.92
2023-08-13T12:32:39.464Z,26.89
2023-08-13T12:37:42.643Z,27.08
2023-08-13T12:42:46.384Z,27.29
2023-08-13T12:47:49.474Z,27.21
2023-08-13T12:52:52.611Z,27.24
2023-08-13T12:57:55.742Z,27.17
2023-08-13T13:02:58.835Z,26.86
2023-08-13T13:08:01.935Z,26.57
2023-08-13T13:13:06.420Z,26.48
2023-08-13T13:18:09.829Z,26.41
2023-08-13T13:23:12.970Z,26.48
2023-08-13T13:28:16.169Z,26.42
2023-08-13T13:33:19.272Z,26.48
2023-08-13T13:38:22.416Z,26.44
2023-08-13T13:43:27.561Z,26.37
2023-08-13T13:48:30.619Z,26.39
2023-08-13T13:53:36.066Z,26.33
2023-08-13T13:58:39.141Z,26.53
2023-08-13T14:03:42.309Z,26.65
2023-08-13T14:08:45.610Z,26.61
2023-08-13T14:13:48.814Z,26.49
2023-08-13T14:18:52.090Z,26.50
2023-08-13T14:23:55.141Z,26.44
2023-08-13T14:29:00.760Z,26.53
2023-08-13T14:34:04.234Z,26.52
2023-08-13T14:39:07.291Z,26.84
2023-08-13T14:44:10.439Z,27.03
2023-08-13T14:49:13.768Z,27.32
2023-08-13T14:54:16.986Z,27.36
2023-08-13T14:59:20.710Z,27.19
2023-08-13T15:04:23.765Z,27.42
2023-08-13T15:09:27.037Z,27.50
2023-08-13T15:14:30.785Z,27.50
2023-08-13T15:19:33.859Z,27.34
2023-08-13T15:24:36.921Z,27.30
2023-08-13T15:29:40.005Z,27.30
2023-08-13T15:34:43.735Z,27.38
2023-08-13T15:39:46.801Z,27.53
2023-08-13T15:44:49.841Z,27.51
2023-08-13T15:49:55.999Z,27.46
2023-08-13T15:54:59.046Z,27.44
2023-08-13T16:00:02.242Z,27.38
2023-08-13T16:05:16.322Z,27.35
2023-08-13T16:10:20.690Z,27.19
2023-08-13T16:15:23.795Z,27.06
2023-08-13T16:20:26.971Z,27.00
2023-08-13T16:25:30.153Z,26.99
2023-08-13T16:30:33.385Z,26.70
2023-08-13T16:35:36.571Z,26.51
2023-08-13T16:40:39.694Z,26.52
2023-08-13T16:45:42.822Z,26.40
2023-08-13T16:50:45.989Z,26.13
2023-08-13T16:55:49.154Z,26.09
2023-08-13T17:00:52.494Z,25.97
2023-08-13T17:05:55.694Z,25.78
2023-08-13T17:10:58.803Z,25.54
2023-08-13T17:16:03.266Z,25.56
2023-08-13T17:21:06.642Z,25.69
2023-08-13T17:26:09.782Z,25.59
2023-08-13T17:31:12.933Z,25.65
2023-08-13T17:36:15.997Z,25.62
2023-08-13T17:41:19.015Z,25.47
2023-08-13T17:46:23.409Z,25.62
2023-08-13T17:51:26.472Z,25.33
2023-08-13T17:56:29.574Z,25.05
2023-08-13T18:01:33.099Z,25.10
2023-08-13T18:06:38.305Z,25.16
2023-08-13T18:11:41.432Z,24.97
2023-08-13T18:16:44.510Z,25.19
2023-08-13T18:21:47.634Z,25.07
2023-08-13T18:26:51.460Z,25.03
2023-08-13T18:31:54.739Z,24.93
2023-08-13T18:36:57.821Z,24.81
2023-08-13T18:42:00.968Z,24.70
2023-08-13T18:47:04.096Z,24.65
2023-08-13T18:52:07.436Z,24.62
2023-08-13T18:57:11.051Z,24.58
2023-08-13T19:02:14.462Z,24.34
2023-08-13T19:07:18.930Z,24.48
2023-08-13T19:12:21.921Z,24.44
2023-08-13T19:17:28.098Z,24.67
2023-08-13T19:22:31.180Z,24.78
2023-08-13T19:27:34.214Z,24.75
2023-08-13T19:32:37.388Z,24.75
2023-08-13T19:37:40.467Z,24.82
2023-08-13T19:42:43.826Z,24.67
2023-08-13T19:47:46.962Z,24.75
2023-08-13T19:52:50.055Z,24.71
2023-08-13T19:57:53.092Z,24.72
2023-08-13T20:02:56.175Z,24.75
2023-08-13T20:07:59.330Z,24.49
2023-08-13T20:13:02.513Z,24.54
2023-08-13T20:18:05.725Z,24.57
2023-08-13T20:23:08.886Z,24.47
2023-08-13T20:28:12.011Z,24.30
2023-08-13T20:33:15.133Z,24.12
2023-08-13T20:38:18.290Z,24.04
2023-08-13T20:43:21.361Z,24.09
2023-08-13T20:48:24.439Z,24.08
2023-08-13T20:53:27.772Z,24.26
2023-08-13T20:58:33.250Z,24.18
2023-08-13T21:03:36.440Z,24.28
2023-08-13T21:08:39.488Z,24.21
2023-08-13T21:13:42.568Z,24.36
2023-08-13T21:18:45.901Z,24.39
2023-08-13T21:23:48.976Z,24.62
2023-08-13T21:28:52.227Z,24.58
2023-08-13T21:33:55.390Z,24.68
2023-08-13T21:38:59.694Z,24.78
2023-08-13T21:44:04.966Z,24.81
2023-08-13T21:49:08.007Z,24.79
2023-08-13T21:54:11.034Z,24.74
2023-08-13T21:59:14.055Z,24.89
2023-08-13T22:04:17.140Z,24.87
2023-08-13T22:09:20.226Z,24.84
2023-08-13T22:14:23.564Z,24.94
2023-08-13T22:19:45.045Z,24.90
2023-08-13T22:24:48.315Z,24.68
2023-08-13T22:29:51.495Z,24.66
2023-08-13T22:34:54.688Z,24.61
2023-08-13T22:39:57.783Z,24.45
2023-08-13T22:45:00.858Z,24.38
2023-08-13T22:50:04.368Z,24.36
2023-08-13T22:55:08.091Z,24.40
2023-08-13T23:00:11.937Z,24.22
2023-08-13T23:05:14.989Z,24.12
2023-08-13T23:10:18.070Z,24.09
2023-08-13T23:15:22.440Z,24.06
2023-08-13T23:20:25.572Z,24.05
2023-08-13T23:25:29.897Z,23.98
2023-08-13T23:30:33.962Z,23.96
2023-08-13T23:35:37.186Z,23.78
2023-08-13T23:40:40.282Z,23.81
2023-08-13T23:45:44.785Z,23.82
2023-08-13T23:50:55.581Z,23.78
2023-08-13T23:55:59.068Z,23.81
